createdAt,value
2018-03-28T00:00:41.227Z,18.80
2018-03-28T00:03:07.908Z,20.93
2018-03-28T00:05:34.606Z,18.50
2018-03-28T00:08:01.292Z,21.40
2018-03-28T00:10:27.992Z,20.10
2018-03-28T00:12:54.687Z,20.80
2018-03-28T00:15:21.406Z,16.03
2018-03-28T00:17:48.123Z,17.67
2018-03-28T00:20:14.815Z,21.33
2018-03-28T00:22:41.534Z,20.47
2018-03-28T00:25:08.223Z,19.33
2018-03-28T00:27:34.943Z,21.03
2018-03-28T00:30:01.652Z,18.43
2018-03-28T00:32:28.354Z,20.50
2018-03-28T00:34:55.049Z,17.67
2018-03-28T00:37:21.732Z,18.30
2018-03-28T00:39:48.426Z,18.90
2018-03-28T00:42:15.124Z,19.60
2018-03-28T00:44:41.820Z,18.60
2018-03-28T00:47:08.523Z,17.33
2018-03-28T00:49:35.225Z,24.00
2018-03-28T00:52:01.911Z,22.70
2018-03-28T00:54:28.630Z,21.70
2018-03-28T00:56:55.315Z,20.83
2018-03-28T00:59:22.020Z,26.13
2018-03-28T01:01:48.716Z,24.63
2018-03-28T01:04:15.413Z,27.47
2018-03-28T01:06:42.159Z,31.73
2018-03-28T01:09:08.910Z,81.20
2018-03-28T01:11:35.623Z,73.87
2018-03-28T01:14:02.337Z,83.40
2018-03-28T01:16:29.050Z,70.90
2018-03-28T01:18:55.764Z,47.13
2018-03-28T01:21:22.514Z,45.87
2018-03-28T01:23:49.239Z,51.33
2018-03-28T01:26:15.966Z,73.20
2018-03-28T01:28:42.703Z,51.87
2018-03-28T01:31:09.487Z,59.13
2018-03-28T01:33:36.189Z,65.33
2018-03-28T01:36:02.939Z,77.90
2018-03-28T01:38:29.692Z,50.77
2018-03-28T01:40:56.430Z,66.80
2018-03-28T01:43:23.155Z,73.27
2018-03-28T01:45:49.868Z,88.90
2018-03-28T01:48:16.600Z,97.67
2018-03-28T01:50:43.370Z,97.47
2018-03-28T01:53:10.092Z,59.93
2018-03-28T01:55:36.817Z,66.27
2018-03-28T01:58:03.650Z,54.60
2018-03-28T02:00:30.391Z,61.60
2018-03-28T02:02:57.159Z,43.83
2018-03-28T02:05:23.892Z,44.10
2018-03-28T02:07:50.627Z,44.33
2018-03-28T02:10:17.321Z,46.70
2018-03-28T02:12:44.034Z,48.30
2018-03-28T02:15:10.779Z,49.90
2018-03-28T02:17:37.628Z,49.23
2018-03-28T02:20:04.431Z,42.90
2018-03-28T02:22:31.173Z,36.17
2018-03-28T02:24:57.916Z,36.53
2018-03-28T02:27:24.646Z,30.30
2018-03-28T02:29:51.375Z,29.27
2018-03-28T02:32:18.106Z,27.67
2018-03-28T02:34:44.826Z,28.17
2018-03-28T02:37:11.546Z,35.90
2018-03-28T02:39:38.288Z,42.93
2018-03-28T02:42:05.014Z,50.93
2018-03-28T02:44:31.757Z,46.10
2018-03-28T02:46:58.516Z,48.13
2018-03-28T02:49:25.249Z,41.93
2018-03-28T02:51:52.551Z,49.83
2018-03-28T02:54:19.270Z,42.50
2018-03-28T02:56:45.999Z,42.20
2018-03-28T02:59:12.735Z,47.27
2018-03-28T03:01:39.451Z,47.33
2018-03-28T03:04:06.182Z,45.10
2018-03-28T03:06:32.931Z,43.30
2018-03-28T03:08:59.667Z,52.23
2018-03-28T03:11:26.415Z,44.47
2018-03-28T03:13:53.137Z,36.57
2018-03-28T03:16:19.868Z,36.37
2018-03-28T03:18:46.602Z,35.47
2018-03-28T03:21:13.325Z,34.70
2018-03-28T03:23:40.062Z,28.03
2018-03-28T03:26:06.789Z,38.87
2018-03-28T03:28:33.509Z,35.57
2018-03-28T03:31:00.254Z,33.50
2018-03-28T03:33:26.991Z,31.00
2018-03-28T03:35:53.711Z,31.60
2018-03-28T03:38:20.447Z,31.70
2018-03-28T03:40:47.169Z,30.83
2018-03-28T03:43:13.896Z,33.83
2018-03-28T03:45:40.628Z,30.40
2018-03-28T03:48:07.358Z,34.17
2018-03-28T03:50:34.083Z,35.40
2018-03-28T03:53:00.812Z,36.67
2018-03-28T03:55:27.536Z,37.90
2018-03-28T03:57:54.256Z,40.33
2018-03-28T04:00:21.245Z,33.30
2018-03-28T04:02:47.971Z,34.40
2018-03-28T04:05:14.709Z,35.30
2018-03-28T04:07:41.566Z,36.67
2018-03-28T04:10:08.294Z,33.50
2018-03-28T04:12:35.020Z,37.50
2018-03-28T04:15:01.787Z,38.20
2018-03-28T04:17:28.518Z,34.27
2018-03-28T04:19:55.248Z,35.43
2018-03-28T04:22:22.011Z,38.30
2018-03-28T04:24:48.734Z,41.67
2018-03-28T04:27:15.458Z,34.20
2018-03-28T04:29:42.195Z,35.47
2018-03-28T04:32:09.084Z,30.97
2018-03-28T04:34:36.008Z,32.80
2018-03-28T04:37:02.738Z,34.50
2018-03-28T04:39:29.487Z,32.70
2018-03-28T04:41:56.225Z,32.00
2018-03-28T04:44:22.955Z,34.23
2018-03-28T04:46:49.714Z,36.67
2018-03-28T04:49:16.478Z,35.90
2018-03-28T04:51:43.296Z,38.90
2018-03-28T04:54:10.080Z,32.23
2018-03-28T04:56:37.725Z,41.37
2018-03-28T04:59:04.473Z,38.80
2018-03-28T05:01:31.324Z,37.40
2018-03-28T05:03:58.074Z,39.47
2018-03-28T05:06:25.204Z,36.60
2018-03-28T05:08:51.931Z,44.33
2018-03-28T05:11:18.677Z,43.20
2018-03-28T05:13:45.672Z,42.70
2018-03-28T05:16:12.414Z,43.07
2018-03-28T05:18:39.142Z,44.10
2018-03-28T05:21:05.873Z,46.23
2018-03-28T05:23:32.601Z,43.30
2018-03-28T05:25:59.314Z,42.30
2018-03-28T05:28:26.042Z,43.93
2018-03-28T05:30:52.777Z,41.37
2018-03-28T05:33:19.577Z,41.10
2018-03-28T05:35:46.308Z,38.90
2018-03-28T05:38:13.036Z,42.03
2018-03-28T05:40:39.757Z,38.57
2018-03-28T05:43:06.489Z,35.27
2018-03-28T05:45:33.212Z,40.43
2018-03-28T05:47:59.946Z,41.10
2018-03-28T05:50:26.754Z,43.07
2018-03-28T05:52:53.458Z,40.83
2018-03-28T05:55:20.194Z,38.43
2018-03-28T05:57:46.914Z,35.53
2018-03-28T06:00:14.680Z,43.60
2018-03-28T06:02:41.411Z,36.93
2018-03-28T06:05:08.144Z,40.53
2018-03-28T06:07:34.931Z,36.30
2018-03-28T06:10:01.653Z,40.17
2018-03-28T06:12:28.378Z,35.77
2018-03-28T06:14:55.132Z,34.03
2018-03-28T06:17:21.850Z,34.47
2018-03-28T06:19:48.570Z,42.60
2018-03-28T06:22:15.293Z,34.87
2018-03-28T06:24:42.013Z,32.27
2018-03-28T06:27:08.738Z,37.90
2018-03-28T06:29:35.488Z,44.03
2018-03-28T06:32:02.258Z,37.53
2018-03-28T06:34:28.975Z,34.10
2018-03-28T06:36:55.725Z,36.70
2018-03-28T06:39:22.472Z,37.30
2018-03-28T06:41:49.191Z,38.27
2018-03-28T06:44:15.928Z,40.40
2018-03-28T06:46:42.667Z,36.17
2018-03-28T06:49:09.395Z,36.73
2018-03-28T06:51:36.137Z,37.30
2018-03-28T06:54:02.889Z,42.43
2018-03-28T06:56:29.640Z,30.60
2018-03-28T06:58:56.375Z,30.40
2018-03-28T07:01:23.103Z,38.70
2018-03-28T07:03:49.850Z,36.83
2018-03-28T07:06:16.601Z,34.47
2018-03-28T07:08:43.331Z,36.13
2018-03-28T07:11:10.048Z,37.17
2018-03-28T07:13:36.791Z,35.50
2018-03-28T07:16:03.558Z,32.43
2018-03-28T07:18:30.428Z,32.20
2018-03-28T07:20:57.166Z,34.23
2018-03-28T07:23:23.905Z,43.23
2018-03-28T07:25:50.654Z,39.60
2018-03-28T07:28:17.393Z,38.70
2018-03-28T07:30:44.204Z,37.20
2018-03-28T07:33:10.925Z,37.63
2018-03-28T07:35:37.826Z,37.10
2018-03-28T07:38:04.547Z,47.60
2018-03-28T07:40:31.317Z,31.77
2018-03-28T07:42:58.084Z,36.03
2018-03-28T07:45:24.821Z,42.37
2018-03-28T07:47:51.549Z,33.43
2018-03-28T07:50:18.277Z,37.23
2018-03-28T07:52:45.010Z,37.97
2018-03-28T07:55:11.744Z,33.83
2018-03-28T07:57:38.500Z,32.30
2018-03-28T08:00:05.255Z,34.60
2018-03-28T08:02:31.986Z,35.23
2018-03-28T08:04:58.711Z,33.87
2018-03-28T08:07:25.450Z,37.23
2018-03-28T08:09:52.192Z,36.40
2018-03-28T08:12:18.931Z,37.33
2018-03-28T08:14:45.801Z,35.17
2018-03-28T08:17:12.518Z,37.93
2018-03-28T08:19:39.233Z,33.23
2018-03-28T08:22:05.954Z,36.20
2018-03-28T08:24:32.677Z,38.37
2018-03-28T08:26:59.409Z,33.80
2018-03-28T08:29:26.129Z,39.50
2018-03-28T08:31:52.848Z,35.60
2018-03-28T08:34:19.585Z,34.20
2018-03-28T08:36:46.313Z,32.47
2018-03-28T08:39:13.068Z,32.33
2018-03-28T08:41:39.803Z,33.53
2018-03-28T08:44:06.515Z,31.87
2018-03-28T08:46:33.311Z,29.63
2018-03-28T08:49:00.043Z,32.83
2018-03-28T08:51:26.764Z,31.83
2018-03-28T08:53:53.482Z,39.03
2018-03-28T08:56:20.214Z,31.80
2018-03-28T08:58:46.957Z,37.67
2018-03-28T09:01:13.682Z,29.37
2018-03-28T09:03:40.393Z,31.83
2018-03-28T09:06:07.101Z,31.63
2018-03-28T09:08:33.828Z,36.60
2018-03-28T09:11:00.550Z,28.90
2018-03-28T09:13:27.264Z,34.40
2018-03-28T09:15:53.975Z,33.83
2018-03-28T09:18:20.704Z,31.23
2018-03-28T09:20:47.437Z,31.50
2018-03-28T09:23:14.148Z,33.17
2018-03-28T09:25:40.852Z,31.47
2018-03-28T09:28:07.561Z,37.67
2018-03-28T09:30:34.278Z,33.23
2018-03-28T09:33:00.987Z,34.37
2018-03-28T09:35:27.713Z,35.47
2018-03-28T09:37:54.428Z,30.10
2018-03-28T09:40:21.153Z,33.60
2018-03-28T09:42:47.874Z,29.50
2018-03-28T09:45:14.601Z,31.13
2018-03-28T09:47:41.318Z,34.47
2018-03-28T09:50:08.054Z,29.17
2018-03-28T09:52:34.776Z,36.30
2018-03-28T09:55:01.488Z,27.20
2018-03-28T09:57:28.224Z,27.33
2018-03-28T09:59:54.942Z,29.10
2018-03-28T10:02:36.542Z,29.97
2018-03-28T10:05:03.310Z,36.10
2018-03-28T10:07:30.018Z,36.67
2018-03-28T10:09:56.719Z,33.07
2018-03-28T10:12:23.434Z,32.60
2018-03-28T10:14:50.142Z,41.30
2018-03-28T10:17:16.855Z,30.37
2018-03-28T10:19:43.576Z,32.20
2018-03-28T10:22:10.280Z,32.77
2018-03-28T10:24:36.998Z,34.40
2018-03-28T10:27:03.743Z,36.30
2018-03-28T10:29:30.461Z,31.70
2018-03-28T10:31:57.164Z,29.00
2018-03-28T10:34:23.878Z,28.10
2018-03-28T10:36:50.597Z,28.93
2018-03-28T10:39:17.307Z,32.67
2018-03-28T10:41:44.024Z,36.43
2018-03-28T10:44:10.736Z,33.33
2018-03-28T10:46:37.451Z,27.67
2018-03-28T10:49:04.179Z,30.30
2018-03-28T10:51:31.040Z,29.57
2018-03-28T10:53:57.752Z,34.57
2018-03-28T10:56:24.476Z,31.10
2018-03-28T10:58:51.191Z,29.10
2018-03-28T11:01:17.914Z,32.70
2018-03-28T11:03:44.627Z,28.80
2018-03-28T11:06:11.343Z,27.50
2018-03-28T11:08:38.062Z,31.13
2018-03-28T11:11:04.769Z,33.07
2018-03-28T11:13:31.502Z,28.00
2018-03-28T11:15:58.216Z,29.60
2018-03-28T11:18:24.929Z,30.80
2018-03-28T11:20:51.994Z,33.13
2018-03-28T11:23:18.715Z,30.80
2018-03-28T11:25:45.443Z,27.93
2018-03-28T11:28:12.162Z,28.93
2018-03-28T11:30:38.877Z,29.07
2018-03-28T11:33:05.589Z,28.70
2018-03-28T11:35:32.308Z,27.83
2018-03-28T11:37:59.022Z,29.60
2018-03-28T11:40:25.741Z,30.70
2018-03-28T11:42:52.457Z,23.30
2018-03-28T11:45:19.169Z,28.00
2018-03-28T11:47:45.890Z,24.53
2018-03-28T11:50:12.613Z,24.03
2018-03-28T11:52:39.323Z,27.00
2018-03-28T11:55:06.050Z,23.23
2018-03-28T11:57:32.767Z,21.70
2018-03-28T11:59:59.478Z,27.73
2018-03-28T12:02:26.193Z,24.90
2018-03-28T12:04:52.908Z,25.47
2018-03-28T12:07:19.631Z,22.37
2018-03-28T12:09:46.340Z,22.87
2018-03-28T12:12:13.052Z,23.20
2018-03-28T12:14:39.773Z,25.90
2018-03-28T12:17:06.485Z,27.63
2018-03-28T12:19:33.219Z,25.20
2018-03-28T12:21:59.952Z,29.53
2018-03-28T12:24:26.668Z,25.40
2018-03-28T12:26:53.381Z,23.57
2018-03-28T12:29:20.110Z,22.07
2018-03-28T12:31:46.837Z,25.47
2018-03-28T12:34:13.542Z,25.80
2018-03-28T12:36:40.257Z,23.93
2018-03-28T12:39:06.999Z,24.43
2018-03-28T12:41:33.725Z,25.37
2018-03-28T12:44:00.438Z,26.63
2018-03-28T12:46:27.153Z,22.97
2018-03-28T12:48:53.861Z,24.77
2018-03-28T12:51:20.635Z,25.13
2018-03-28T12:53:47.313Z,24.90
2018-03-28T12:56:14.033Z,24.20
2018-03-28T12:58:40.762Z,23.87
2018-03-28T13:01:08.133Z,24.70
2018-03-28T13:03:34.864Z,28.70
2018-03-28T13:06:01.592Z,27.07
2018-03-28T13:08:28.426Z,23.20
2018-03-28T13:10:55.134Z,23.63
2018-03-28T13:13:21.850Z,23.80
2018-03-28T13:15:48.549Z,24.10
2018-03-28T13:18:15.257Z,23.17
2018-03-28T13:20:41.969Z,29.70
2018-03-28T13:23:08.680Z,24.77
2018-03-28T13:25:35.388Z,28.27
2018-03-28T13:28:02.088Z,22.83
2018-03-28T13:30:28.806Z,28.30
2018-03-28T13:32:55.525Z,25.77
2018-03-28T13:35:22.248Z,24.90
2018-03-28T13:37:48.965Z,26.87
2018-03-28T13:40:15.713Z,25.50
2018-03-28T13:42:56.298Z,25.33
2018-03-28T13:45:30.105Z,25.50
2018-03-28T13:47:56.816Z,23.10
2018-03-28T13:50:23.529Z,21.10
2018-03-28T13:52:57.966Z,25.33
2018-03-28T13:55:25.938Z,23.67
2018-03-28T13:57:54.505Z,22.17
2018-03-28T14:00:21.217Z,27.50
2018-03-28T14:02:50.629Z,20.97
2018-03-28T14:05:17.352Z,21.37
2018-03-28T14:07:44.201Z,21.03
2018-03-28T14:10:11.756Z,21.73
2018-03-28T14:12:38.472Z,18.60
2018-03-28T14:15:05.185Z,22.30
2018-03-28T14:17:31.907Z,25.53
2018-03-28T14:19:58.632Z,21.63
2018-03-28T14:22:26.084Z,29.17
2018-03-28T14:24:52.796Z,24.33
2018-03-28T14:27:19.509Z,29.77
2018-03-28T14:34:19.317Z,26.70
2018-03-28T14:36:46.026Z,33.30
2018-03-28T14:39:13.350Z,27.33
2018-03-28T14:41:40.084Z,29.87
2018-03-28T14:44:36.204Z,27.10
2018-03-28T14:47:02.917Z,26.80
2018-03-28T14:49:29.617Z,28.70
2018-03-28T14:51:56.347Z,27.80
2018-03-28T14:54:23.049Z,26.37
2018-03-28T14:56:49.778Z,26.80
2018-03-28T14:59:16.481Z,26.60
2018-03-28T15:01:43.244Z,25.83
2018-03-28T15:04:10.013Z,30.87
2018-03-28T15:06:36.717Z,32.17
2018-03-28T15:09:03.480Z,32.10
2018-03-28T15:11:30.204Z,27.20
2018-03-28T15:13:56.924Z,28.47
2018-03-28T15:16:23.655Z,30.63
2018-03-28T15:18:50.383Z,31.77
2018-03-28T15:21:17.251Z,26.90
2018-03-28T15:23:43.969Z,26.60
2018-03-28T15:26:10.730Z,29.67
2018-03-28T15:28:37.449Z,30.80
2018-03-28T15:31:04.194Z,27.40
2018-03-28T15:33:30.966Z,27.37
2018-03-28T15:35:57.772Z,29.50
2018-03-28T15:38:24.481Z,28.10
2018-03-28T15:40:51.215Z,30.57
2018-03-28T15:43:18.746Z,28.00
2018-03-28T15:45:45.474Z,25.87
2018-03-28T15:48:12.197Z,26.40
2018-03-28T15:50:39.129Z,28.97
2018-03-28T15:53:05.878Z,27.33
2018-03-28T15:55:32.604Z,28.27
2018-03-28T15:57:59.343Z,28.30
2018-03-28T16:00:26.100Z,30.73
2018-03-28T16:02:52.914Z,27.43
2018-03-28T16:05:21.768Z,40.00
2018-03-28T16:07:49.909Z,28.70
2018-03-28T16:10:31.666Z,27.67
2018-03-28T16:13:01.797Z,30.13
2018-03-28T16:15:33.862Z,31.10
2018-03-28T16:18:06.369Z,31.17
2018-03-28T16:20:36.383Z,28.03
2018-03-28T16:23:05.572Z,28.27
2018-03-28T16:25:34.114Z,27.20
2018-03-28T16:28:02.809Z,25.50
2018-03-28T16:30:30.856Z,25.73
2018-03-28T16:32:59.004Z,33.43
2018-03-28T16:35:27.626Z,27.37
2018-03-28T16:37:57.329Z,27.30
2018-03-28T16:40:24.085Z,26.33
2018-03-28T16:42:50.830Z,29.50
2018-03-28T16:45:17.578Z,25.97
2018-03-28T16:47:44.389Z,34.37
2018-03-28T16:50:11.120Z,26.97
2018-03-28T16:52:37.894Z,29.40
2018-03-28T16:55:04.648Z,26.13
2018-03-28T16:57:31.400Z,23.60
2018-03-28T16:59:58.232Z,25.87
2018-03-28T17:02:24.957Z,26.67
2018-03-28T17:04:51.743Z,26.40
2018-03-28T17:07:18.493Z,26.87
2018-03-28T17:09:45.208Z,37.23
2018-03-28T17:12:11.965Z,28.10
2018-03-28T17:14:38.870Z,30.40
2018-03-28T17:17:05.703Z,29.77
2018-03-28T17:19:32.435Z,26.33
2018-03-28T17:21:59.206Z,27.13
2018-03-28T17:24:25.942Z,25.20
2018-03-28T17:26:52.695Z,28.20
2018-03-28T17:29:19.419Z,27.23
2018-03-28T17:31:46.330Z,28.67
2018-03-28T17:34:13.128Z,26.47
2018-03-28T17:36:39.870Z,32.60
2018-03-28T17:39:06.659Z,28.10
2018-03-28T17:41:33.419Z,27.90
2018-03-28T17:44:00.166Z,29.47
2018-03-28T17:46:26.890Z,27.43
2018-03-28T17:48:53.622Z,27.60
2018-03-28T17:51:20.365Z,25.77
2018-03-28T17:53:47.109Z,26.67
2018-03-28T17:56:13.837Z,29.23
2018-03-28T17:58:40.572Z,27.43
2018-03-28T18:01:07.400Z,28.43
2018-03-28T18:03:34.146Z,28.30
2018-03-28T18:06:00.876Z,33.73
2018-03-28T18:08:27.591Z,29.40
2018-03-28T18:10:54.351Z,28.53
2018-03-28T18:13:21.084Z,28.57
2018-03-28T18:15:47.825Z,29.97
2018-03-28T18:18:14.569Z,29.23
2018-03-28T18:20:41.362Z,39.00
2018-03-28T18:23:08.088Z,32.33
2018-03-28T18:25:34.864Z,31.60
2018-03-28T18:28:01.729Z,34.67
2018-03-28T18:30:28.830Z,31.30
2018-03-28T18:32:55.568Z,28.87
2018-03-28T18:35:22.308Z,38.87
2018-03-28T18:37:49.278Z,30.60
2018-03-28T18:40:16.088Z,36.53
2018-03-28T18:42:42.851Z,34.37
2018-03-28T18:45:09.616Z,38.80
2018-03-28T18:47:36.365Z,40.33
2018-03-28T18:50:03.170Z,31.73
2018-03-28T18:52:29.990Z,30.03
2018-03-28T18:54:56.736Z,32.50
2018-03-28T18:57:23.480Z,28.80
2018-03-28T18:59:50.241Z,32.10
2018-03-28T19:02:17.073Z,28.93
2018-03-28T19:04:43.906Z,31.77
2018-03-28T19:07:10.652Z,34.60
2018-03-28T19:09:37.399Z,31.43
2018-03-28T19:12:04.152Z,33.00
2018-03-28T19:14:30.921Z,31.60
2018-03-28T19:16:57.803Z,34.97
2018-03-28T19:19:24.547Z,32.97
2018-03-28T19:21:51.280Z,33.73
2018-03-28T19:24:18.068Z,35.07
2018-03-28T19:26:44.865Z,36.10
2018-03-28T19:29:11.618Z,35.50
2018-03-28T19:31:38.684Z,30.40
2018-03-28T19:34:05.417Z,35.47
2018-03-28T19:36:32.151Z,35.83
2018-03-28T19:38:58.896Z,35.50
2018-03-28T19:41:25.644Z,34.33
2018-03-28T19:43:52.409Z,34.70
2018-03-28T19:46:19.185Z,38.50
2018-03-28T19:48:46.040Z,31.53
2018-03-28T19:51:12.779Z,41.03
2018-03-28T19:53:39.743Z,33.60
2018-03-28T19:56:06.481Z,31.70
2018-03-28T19:58:33.240Z,33.83
2018-03-28T20:01:05.449Z,36.30
2018-03-28T20:03:32.765Z,32.20
2018-03-28T20:05:59.541Z,31.83
2018-03-28T20:08:26.293Z,30.23
2018-03-28T20:11:02.620Z,34.17
2018-03-28T20:13:29.383Z,34.17
2018-03-28T20:15:56.158Z,40.57
2018-03-28T20:18:22.880Z,32.40
2018-03-28T20:20:49.606Z,36.13
2018-03-28T20:23:16.352Z,34.47
2018-03-28T20:25:43.078Z,32.63
2018-03-28T20:28:09.818Z,34.77
2018-03-28T20:30:37.389Z,34.33
2018-03-28T20:33:04.131Z,41.50
2018-03-28T20:35:30.867Z,32.13
2018-03-28T20:37:57.594Z,32.23
2018-03-28T20:40:24.396Z,28.37
2018-03-28T20:42:51.163Z,33.80
2018-03-28T20:45:17.906Z,34.17
2018-03-28T20:47:44.786Z,31.27
2018-03-28T20:50:11.523Z,27.00
2018-03-28T20:52:38.255Z,32.90
2018-03-28T20:55:04.982Z,31.00
2018-03-28T20:57:31.748Z,36.03
2018-03-28T20:59:58.496Z,32.57
2018-03-28T21:02:25.222Z,33.77
2018-03-28T21:04:51.969Z,30.17
2018-03-28T21:07:18.715Z,31.37
2018-03-28T21:09:46.479Z,32.27
2018-03-28T21:12:13.231Z,31.50
2018-03-28T21:14:39.971Z,31.17
2018-03-28T21:17:07.476Z,33.53
2018-03-28T21:19:34.222Z,31.00
2018-03-28T21:22:00.975Z,29.90
2018-03-28T21:24:27.741Z,31.30
2018-03-28T21:26:54.467Z,31.80
2018-03-28T21:29:21.193Z,31.67
2018-03-28T21:31:47.923Z,37.90
2018-03-28T21:34:14.666Z,41.50
2018-03-28T21:36:41.407Z,36.40
2018-03-28T21:39:09.072Z,34.30
2018-03-28T21:41:35.970Z,32.33
2018-03-28T21:44:02.863Z,34.20
2018-03-28T21:46:29.605Z,33.03
2018-03-28T21:48:56.345Z,34.43
2018-03-28T21:51:23.079Z,36.13
2018-03-28T21:53:49.804Z,37.83
2018-03-28T21:56:16.538Z,33.13
2018-03-28T21:58:43.272Z,32.00
2018-03-28T22:01:10.245Z,37.10
2018-03-28T22:03:36.970Z,39.47
2018-03-28T22:06:03.705Z,36.70
2018-03-28T22:08:30.445Z,35.53
2018-03-28T22:10:57.181Z,39.10
2018-03-28T22:13:23.918Z,38.70
2018-03-28T22:15:50.649Z,36.23
2018-03-28T22:18:17.391Z,34.13
2018-03-28T22:20:44.279Z,37.30
2018-03-28T22:23:11.032Z,35.43
2018-03-28T22:25:37.761Z,36.37
2018-03-28T22:28:04.497Z,33.97
2018-03-28T22:30:31.223Z,38.10
2018-03-28T22:32:57.969Z,42.50
2018-03-28T22:35:24.698Z,36.00
2018-03-28T22:37:51.429Z,36.20
2018-03-28T22:40:18.158Z,34.77
2018-03-28T22:42:44.874Z,37.13
2018-03-28T22:45:11.676Z,46.70
2018-03-28T22:47:38.423Z,39.97
2018-03-28T22:50:05.168Z,34.80
2018-03-28T22:52:31.908Z,36.93
2018-03-28T22:54:58.635Z,34.30
2018-03-28T22:57:25.353Z,35.37
2018-03-28T22:59:52.100Z,38.40
2018-03-28T23:02:18.839Z,35.70
2018-03-28T23:04:45.564Z,38.83
2018-03-28T23:07:12.295Z,41.57
2018-03-28T23:09:39.021Z,39.77
2018-03-28T23:12:05.748Z,37.80
2018-03-28T23:14:32.482Z,36.70
2018-03-28T23:16:59.207Z,38.90
2018-03-28T23:19:25.968Z,36.03
2018-03-28T23:21:52.697Z,34.60
2018-03-28T23:24:19.434Z,36.77
2018-03-28T23:26:46.193Z,34.30
2018-03-28T23:29:12.914Z,36.67
2018-03-28T23:31:39.712Z,38.20
2018-03-28T23:34:06.444Z,36.80
2018-03-28T23:36:33.166Z,36.90
2018-03-28T23:38:59.894Z,37.13
2018-03-28T23:41:26.623Z,34.93
2018-03-28T23:43:53.365Z,37.80
2018-03-28T23:46:20.090Z,38.30
2018-03-28T23:48:46.823Z,40.93
2018-03-28T23:51:13.568Z,38.10
2018-03-28T23:53:40.361Z,38.50
2018-03-28T23:56:07.099Z,37.23
2018-03-28T23:58:33.833Z,42.87
